Time;durP1;ratioP1;P1;durP2;ratioP2;P2;SDS_P1;SDS_P2;PMS_P1;PMS_P2;Temp;Humidity;BMP_temperature;BMP_pressure;BME280_temperature;BME280_humidity;BME280_pressure;Samples;Min_cycle;Max_cycle;Signal;HPM_P1;HPM_P2
2023/07/27 00:01:00;;;;;;;2.17;1.90;;;;;;;15.59;82.48;100921.59;4996862;28;20024;-81
2023/07/27 00:03:25;;;;;;;3.20;2.00;;;;;;;15.60;82.60;100925.88;4995176;28;20022;-81
2023/07/27 00:05:50;;;;;;;2.13;1.97;;;;;;;15.59;81.83;100932.06;4995791;28;20033;-81
2023/07/27 00:08:16;;;;;;;2.10;1.90;;;;;;;15.55;81.45;100923.44;4996246;28;20030;-81
2023/07/27 00:10:41;;;;;;;2.00;1.80;;;;;;;15.47;81.33;100911.56;4995690;28;20026;-81
2023/07/27 00:13:06;;;;;;;2.50;1.90;;;;;;;15.49;81.28;100928.88;4996014;28;20398;-81
2023/07/27 00:15:32;;;;;;;2.20;2.00;;;;;;;15.46;81.56;100920.31;4995586;28;20443;-82
2023/07/27 00:18:00;;;;;;;1.87;1.70;;;;;;;15.45;81.79;100916.81;4995355;28;20041;-82
2023/07/27 00:20:25;;;;;;;1.67;1.58;;;;;;;15.43;81.22;100916.00;4996054;28;20026;-81
2023/07/27 00:22:51;;;;;;;1.80;1.70;;;;;;;15.43;82.89;100916.88;4995549;28;20080;-82
2023/07/27 00:25:16;;;;;;;1.27;1.27;;;;;;;15.40;81.51;100906.50;4995687;28;20026;-81
2023/07/27 00:27:41;;;;;;;1.57;1.47;;;;;;;15.42;81.29;100909.09;5011394;28;20026;-82
2023/07/27 00:30:07;;;;;;;1.47;1.33;;;;;;;15.41;81.45;100905.63;5015023;28;20025;-82
2023/07/27 00:32:33;;;;;;;1.53;1.43;;;;;;;15.42;81.17;100909.09;5014661;28;20014;-82
2023/07/27 00:34:58;;;;;;;1.90;1.80;;;;;;;15.40;81.14;100901.28;5015556;28;20037;-82
2023/07/27 00:37:23;;;;;;;1.60;1.50;;;;;;;15.41;81.17;100902.16;5014721;28;20478;-82
2023/07/27 00:39:49;;;;;;;2.00;1.53;;;;;;;15.33;81.26;100893.69;5014938;28;20053;-82
2023/07/27 00:42:14;;;;;;;1.50;1.40;;;;;;;15.39;81.75;100901.34;5014900;28;20105;-82
2023/07/27 00:44:39;;;;;;;1.70;1.50;;;;;;;15.33;81.57;100889.34;5014888;28;20417;-82
2023/07/27 00:47:06;;;;;;;1.60;1.50;;;;;;;15.35;82.10;100889.28;5013820;28;20038;-82
2023/07/27 00:49:31;;;;;;;1.90;1.77;;;;;;;15.30;81.90;100892.06;5015141;28;20030;-82
2023/07/27 00:51:58;;;;;;;1.93;1.73;;;;;;;15.27;81.90;100885.19;5014292;28;20157;-81
2023/07/27 00:54:23;;;;;;;;;;;;;;;15.28;82.09;100881.66;5015546;28;20016;-81
2023/07/27 00:56:49;;;;;;;1.77;1.67;;;;;;;15.24;82.50;100874.81;5015040;28;20344;-81
2023/07/27 00:59:14;;;;;;;2.83;1.90;;;;;;;15.22;83.39;100867.94;5013689;28;20037;-81
2023/07/27 01:01:40;;;;;;;1.60;1.50;;;;;;;15.21;83.36;100863.63;5014744;28;20026;-81
2023/07/27 01:04:05;;;;;;;1.60;1.50;;;;;;;15.16;83.92;100865.53;5014780;28;20414;-81
2023/07/27 01:06:31;;;;;;;1.70;1.60;;;;;;;15.14;83.14;100855.13;5013311;28;20482;-81
2023/07/27 01:08:56;;;;;;;1.60;1.50;;;;;;;15.14;83.06;100852.50;5014433;28;20037;-81
2023/07/27 01:11:47;;;;;;;2.03;1.73;;;;;;;15.09;84.09;100849.19;5012963;28;20581;-81
2023/07/27 01:14:25;;;;;;;1.77;1.67;;;;;;;15.08;83.27;100842.28;5013665;28;20030;-80
2023/07/27 01:17:34;;;;;;;1.80;1.60;;;;;;;15.06;83.33;100839.69;5014721;28;20030;-80
2023/07/27 01:20:02;;;;;;;1.98;1.77;;;;;;;15.07;83.40;100840.56;4933751;29;20054;-81
2023/07/27 01:22:30;;;;;;;1.98;1.73;;;;;;;15.05;83.34;100837.16;4934981;29;20071;-81
2023/07/27 01:25:33;;;;;;;1.70;1.60;;;;;;;15.05;83.60;100835.38;4977024;28;20045;-81
2023/07/27 01:27:58;;;;;;;1.88;1.70;;;;;;;15.05;83.79;100834.53;5013486;28;20033;-82
2023/07/27 01:30:27;;;;;;;1.80;1.70;;;;;;;15.02;83.70;100825.06;5014001;28;20022;-81
2023/07/27 01:33:14;;;;;;;2.60;1.70;;;;;;;15.01;84.50;100823.34;5014239;28;20474;-82
2023/07/27 01:36:11;;;;;;;2.20;1.80;;;;;;;15.02;84.31;100821.56;5013843;28;20061;-82
2023/07/27 01:38:39;;;;;;;2.08;1.63;;;;;;;14.99;84.49;100814.69;5012984;28;20120;-82
2023/07/27 01:41:06;;;;;;;1.60;1.50;;;;;;;14.99;84.26;100814.69;5013221;28;20026;-82
2023/07/27 01:43:33;;;;;;;1.67;1.55;;;;;;;14.98;84.42;100802.53;5014166;28;20105;-82
2023/07/27 01:45:59;;;;;;;1.88;1.70;;;;;;;14.96;86.52;100805.22;5014077;28;20064;-82
2023/07/27 01:48:26;;;;;;;1.70;1.60;;;;;;;14.93;85.84;100796.59;5013408;28;20044;-82
2023/07/27 01:50:52;;;;;;;1.60;1.50;;;;;;;14.88;85.09;100791.53;5013618;28;20382;-82
2023/07/27 01:53:20;;;;;;;2.00;1.70;;;;;;;14.91;85.34;100796.66;5013255;28;20461;-82
2023/07/27 01:55:46;;;;;;;2.10;1.90;;;;;;;14.90;85.51;100786.25;5013184;28;20025;-82
2023/07/27 01:58:15;;;;;;;1.60;1.50;;;;;;;14.87;85.67;100792.44;5013633;28;20895;-82
2023/07/27 02:00:41;;;;;;;1.60;1.50;;;;;;;14.87;86.25;100784.59;5013457;28;20037;-83
2023/07/27 02:03:09;;;;;;;1.92;1.70;;;;;;;14.85;85.96;100778.59;5012673;28;20030;-83
2023/07/27 02:05:34;;;;;;;1.95;1.60;;;;;;;14.82;86.48;100770.84;5013739;28;20030;-84
2023/07/27 02:07:59;;;;;;;1.80;1.70;;;;;;;14.80;86.39;100768.28;5013846;28;20033;-84
2023/07/27 02:10:25;;;;;;;1.90;1.57;;;;;;;14.79;86.10;100760.50;5012771;28;20053;-84
2023/07/27 02:13:20;;;;;;;2.70;1.97;;;;;;;14.78;90.21;100761.41;5013256;28;20053;-83
2023/07/27 02:16:02;;;;;;;2.35;2.05;;;;;;;14.73;89.16;100753.72;5012510;28;20053;-84
2023/07/27 02:18:30;;;;;;;2.67;2.00;;;;;;;14.67;87.20;100744.34;4993182;28;20494;-83
2023/07/27 02:20:56;;;;;;;3.20;2.05;;;;;;;14.66;88.67;100733.91;4993718;28;20391;-84
2023/07/27 02:23:23;;;;;;;3.08;2.38;;;;;;;14.63;87.36;100737.50;4993248;28;20136;-83
2023/07/27 02:25:48;;;;;;;2.10;1.90;;;;;;;14.61;87.34;100720.16;4993566;28;20050;-83
2023/07/27 02:28:14;;;;;;;2.60;2.10;;;;;;;14.62;87.09;100725.34;4993404;28;20116;-84
2023/07/27 02:30:39;;;;;;;2.93;1.80;;;;;;;14.63;88.97;100718.34;4992619;28;20034;-83
2023/07/27 02:33:05;;;;;;;3.07;1.80;;;;;;;14.60;87.85;100721.03;4993153;28;20027;-84
2023/07/27 02:35:30;;;;;;;1.80;1.70;;;;;;;14.65;87.96;100717.38;4997657;28;20026;-83
2023/07/27 02:37:56;;;;;;;1.80;1.60;;;;;;;14.63;90.47;100710.50;5012171;28;20091;-84
2023/07/27 02:40:21;;;;;;;2.33;1.80;;;;;;;14.58;89.90;100708.06;5012966;28;20828;-83
2023/07/27 02:42:46;;;;;;;1.87;1.60;;;;;;;14.57;88.12;100700.28;5013185;28;20045;-83
2023/07/27 02:45:14;;;;;;;3.07;2.20;;;;;;;14.56;94.51;100694.19;5012198;28;20056;-84
2023/07/27 02:47:41;;;;;;;2.38;2.13;;;;;;;14.49;88.74;100684.88;5012734;28;20045;-84
2023/07/27 02:50:07;;;;;;;3.07;2.00;;;;;;;14.52;90.05;100687.38;5012642;28;20140;-84
2023/07/27 02:52:32;;;;;;;3.22;2.25;;;;;;;14.48;92.23;100680.56;5012825;28;20028;-84
2023/07/27 02:54:58;;;;;;;2.70;2.17;;;;;;;14.44;90.28;100686.78;5012991;28;20101;-84
2023/07/27 02:57:23;;;;;;;2.17;1.97;;;;;;;14.43;90.21;100683.31;4997101;28;20034;-84
2023/07/27 02:59:48;;;;;;;2.17;1.97;;;;;;;14.44;91.11;100682.41;4992990;28;20030;-84
2023/07/27 03:02:14;;;;;;;2.70;2.00;;;;;;;14.44;90.09;100682.41;4992989;28;20050;-84
2023/07/27 03:04:39;;;;;;;1.93;1.63;;;;;;;14.42;89.08;100671.16;4992730;28;20027;-84
2023/07/27 03:07:04;;;;;;;1.70;1.60;;;;;;;14.47;89.97;100674.47;4992448;28;20542;-85
2023/07/27 03:09:30;;;;;;;1.80;1.53;;;;;;;14.47;90.60;100671.84;4993419;28;20376;-85
2023/07/27 03:11:55;;;;;;;2.10;1.90;;;;;;;14.48;90.01;100668.34;4992982;28;20467;-84
2023/07/27 03:14:20;;;;;;;2.27;1.80;;;;;;;14.47;89.73;100661.41;4992110;28;20109;-84
2023/07/27 03:16:46;;;;;;;1.63;1.53;;;;;;;14.44;90.39;100645.00;4993437;28;20427;-82
2023/07/27 03:19:11;;;;;;;3.30;2.30;;;;;;;14.46;96.55;100651.03;4992522;28;20026;-83
2023/07/27 03:21:36;;;;;;;3.30;2.20;;;;;;;14.36;93.68;100646.13;4992948;28;20176;-83
2023/07/27 03:24:01;;;;;;;2.53;2.20;;;;;;;14.34;94.99;100629.66;4993023;28;20519;-85
2023/07/27 03:26:27;;;;;;;2.67;2.13;;;;;;;14.32;91.71;100622.78;4992541;28;20041;-85
2023/07/27 03:28:52;;;;;;;3.10;2.20;;;;;;;14.33;90.64;100621.88;4992683;28;20153;-85
2023/07/27 03:31:19;;;;;;;2.90;2.27;;;;;;;14.32;91.00;100597.53;4992867;28;20023;-84
2023/07/27 03:33:45;;;;;;;2.53;2.15;;;;;;;14.35;90.96;100604.41;4992003;28;20026;-84
2023/07/27 03:36:11;;;;;;;3.03;2.17;;;;;;;14.34;91.59;100594.88;4993003;28;20033;-85
2023/07/27 03:38:36;;;;;;;3.63;2.33;;;;;;;14.30;92.58;100581.06;4993111;28;20274;-84
2023/07/27 03:41:02;;;;;;;3.60;2.53;;;;;;;14.27;93.67;100577.72;4992361;28;20026;-84
2023/07/27 03:43:27;;;;;;;3.43;2.40;;;;;;;14.25;92.60;100564.72;4993050;28;20033;-84
2023/07/27 03:45:53;;;;;;;4.67;2.60;;;;;;;14.26;96.13;100556.00;4993095;28;20026;-84
2023/07/27 03:48:18;;;;;;;5.80;3.00;;;;;;;14.22;94.20;100551.78;4992152;28;20036;-84
2023/07/27 03:50:43;;;;;;;5.90;3.03;;;;;;;14.18;95.52;100553.66;4996321;28;20041;-84
2023/07/27 03:53:09;;;;;;;4.43;2.87;;;;;;;14.17;94.73;100554.53;4996657;28;20129;-84
2023/07/27 03:55:34;;;;;;;3.97;2.90;;;;;;;14.17;94.06;100556.31;4995100;28;20030;-84
2023/07/27 03:57:59;;;;;;;3.83;2.70;;;;;;;14.18;95.40;100552.81;4996500;28;20029;-84
2023/07/27 04:00:25;;;;;;;2.60;2.40;;;;;;;14.20;96.83;100551.84;4995959;28;20030;-84
2023/07/27 04:02:50;;;;;;;3.60;2.50;;;;;;;14.21;97.89;100547.44;4996047;28;20027;-84
2023/07/27 04:05:15;;;;;;;3.00;2.23;;;;;;;14.17;96.98;100538.88;4996241;28;20356;-84
2023/07/27 04:07:41;;;;;;;3.57;2.30;;;;;;;14.19;96.24;100546.66;5012257;28;20107;-84
2023/07/27 04:10:06;;;;;;;2.83;2.23;;;;;;;14.20;98.76;100546.63;5015072;28;20033;-85
2023/07/27 04:12:33;;;;;;;3.03;2.43;;;;;;;14.18;96.99;100544.97;5015828;28;20022;-85
2023/07/27 04:14:58;;;;;;;4.03;2.63;;;;;;;14.20;100.00;100540.53;5015328;28;20034;-84
2023/07/27 04:17:23;;;;;;;5.27;3.10;;;;;;;14.24;94.90;100549.97;5014453;28;20044;-84
2023/07/27 04:19:49;;;;;;;3.73;2.40;;;;;;;14.19;96.25;100537.09;5015454;28;20030;-83
2023/07/27 04:22:14;;;;;;;3.60;2.57;;;;;;;14.21;100.00;100532.66;5015599;28;20390;-85
2023/07/27 04:24:44;;;;;;;3.10;2.23;;;;;;;14.22;99.32;100530.91;5015279;28;20474;-85
2023/07/27 04:27:11;;;;;;;3.17;2.53;;;;;;;14.21;100.00;100522.22;5015288;28;20104;-84
2023/07/27 04:29:36;;;;;;;3.15;2.40;;;;;;;14.21;100.00;100516.13;5015260;28;20037;-84
2023/07/27 04:32:01;;;;;;;2.80;2.30;;;;;;;14.16;98.28;100508.47;5014736;28;20025;-84
2023/07/27 04:34:27;;;;;;;3.80;2.40;;;;;;;14.18;100.00;100500.59;5014868;28;20030;-84
2023/07/27 04:36:52;;;;;;;4.17;2.70;;;;;;;14.16;100.00;100498.03;5014677;28;20021;-84
2023/07/27 04:39:18;;;;;;;2.50;2.30;;;;;;;14.17;100.00;100491.91;5015227;28;20470;-86
2023/07/27 04:41:44;;;;;;;3.20;2.50;;;;;;;14.26;100.00;100488.13;5014036;28;20022;-87
2023/07/27 04:44:12;;;;;;;4.83;2.87;;;;;;;14.20;100.00;100489.19;5014370;28;20024;-85
2023/07/27 04:46:38;;;;;;;3.25;2.60;;;;;;;14.17;100.00;100483.25;5008791;28;20038;-84
2023/07/27 04:49:06;;;;;;;3.78;2.50;;;;;;;14.20;100.00;100478.75;4995278;28;20061;-84
2023/07/27 04:51:32;;;;;;;2.85;2.40;;;;;;;14.24;100.00;100479.50;4994934;28;20021;-85
2023/07/27 04:53:57;;;;;;;2.50;2.30;;;;;;;14.23;100.00;100476.94;4995302;28;20390;-85
2023/07/27 04:56:22;;;;;;;3.57;2.57;;;;;;;14.23;100.00;100471.72;4995123;28;20037;-84
2023/07/27 04:58:47;;;;;;;3.87;2.40;;;;;;;14.24;100.00;100478.66;4994937;28;20027;-84
2023/07/27 05:01:13;;;;;;;3.10;2.30;;;;;;;14.23;100.00;100475.19;4995937;28;20105;-84
2023/07/27 05:03:38;;;;;;;3.70;2.70;;;;;;;14.21;100.00;100470.03;4994916;28;20014;-84
2023/07/27 05:06:03;;;;;;;4.63;2.50;;;;;;;14.24;100.00;100469.06;4994747;28;20471;-83
2023/07/27 05:08:29;;;;;;;2.53;2.20;;;;;;;14.23;100.00;100469.97;4995263;28;20072;-84
2023/07/27 05:10:54;;;;;;;4.03;2.90;;;;;;;14.19;100.00;100457.91;4995054;28;20045;-84
2023/07/27 05:13:19;;;;;;;4.37;2.77;;;;;;;14.23;100.00;100461.28;4994029;28;20506;-84
2023/07/27 05:15:45;;;;;;;3.50;2.50;;;;;;;14.23;100.00;100458.69;4994851;28;20125;-84
2023/07/27 05:18:10;;;;;;;2.80;2.33;;;;;;;14.18;100.00;100441.41;4994630;28;20027;-83
2023/07/27 05:20:35;;;;;;;2.87;2.30;;;;;;;14.24;100.00;100447.34;4995491;28;20030;-84
2023/07/27 05:23:04;;;;;;;2.40;2.20;;;;;;;14.25;100.00;100443.78;4995333;28;20026;-84
2023/07/27 05:25:29;;;;;;;2.92;2.25;;;;;;;14.21;100.00;100432.63;4994587;28;20022;-84
2023/07/27 05:27:54;;;;;;;2.40;2.20;;;;;;;14.26;100.00;100441.16;4994242;28;20506;-84
2023/07/27 05:30:20;;;;;;;2.43;2.10;;;;;;;14.30;100.00;100442.72;4994283;28;20493;-84
2023/07/27 05:32:45;;;;;;;2.87;2.13;;;;;;;14.32;100.00;100432.22;4994556;28;20022;-84
2023/07/27 05:35:10;;;;;;;2.93;2.10;;;;;;;14.36;100.00;100442.50;4993854;28;20030;-84
2023/07/27 05:37:46;;;;;;;2.40;2.10;;;;;;;14.37;100.00;100427.69;4994943;28;20028;-83
2023/07/27 05:40:11;;;;;;;4.30;2.25;;;;;;;14.41;100.00;100429.28;4993741;28;20034;-82
2023/07/27 05:42:37;;;;;;;4.17;2.53;;;;;;;14.42;100.00;100432.72;4994655;28;20076;-82
2023/07/27 05:45:04;;;;;;;3.47;2.30;;;;;;;14.47;100.00;100438.63;4994241;28;20386;-86
2023/07/27 05:47:29;;;;;;;3.25;2.35;;;;;;;14.48;100.00;100427.28;4994836;28;20030;-84
2023/07/27 05:49:55;;;;;;;2.30;2.10;;;;;;;14.45;100.00;100425.66;4994190;28;20094;-84
2023/07/27 05:52:20;;;;;;;2.00;1.90;;;;;;;14.45;100.00;100412.59;4994258;28;20496;-85
2023/07/27 05:54:46;;;;;;;2.30;2.10;;;;;;;14.49;100.00;100415.94;4993811;28;20033;-85
2023/07/27 05:57:11;;;;;;;2.50;1.90;;;;;;;14.55;100.00;100426.13;4995057;28;20027;-83
2023/07/27 05:59:36;;;;;;;2.17;1.97;;;;;;;14.61;100.00;100417.19;4994015;28;20035;-82
2023/07/27 06:02:02;;;;;;;2.27;2.10;;;;;;;14.64;100.00;100417.09;4993761;28;20030;-82
2023/07/27 06:04:28;;;;;;;2.10;1.90;;;;;;;14.67;100.00;100414.41;4994393;28;20030;-82
2023/07/27 06:06:54;;;;;;;2.42;2.22;;;;;;;14.68;100.00;100413.50;4993713;28;20030;-83
2023/07/27 06:09:22;;;;;;;2.40;2.10;;;;;;;14.70;100.00;100410.81;4993918;28;20032;-88
2023/07/27 06:11:47;;;;;;;2.38;2.05;;;;;;;14.70;100.00;100408.19;4993932;28;20477;-86
2023/07/27 06:14:13;;;;;;;2.23;1.87;;;;;;;14.76;100.00;100415.78;4994481;28;20025;-86
2023/07/27 06:16:38;;;;;;;2.63;2.20;;;;;;;14.82;100.00;100410.31;4993433;28;20027;-86
2023/07/27 06:19:03;;;;;;;2.60;2.00;;;;;;;14.82;100.00;100413.78;4994991;28;20034;-86
2023/07/27 06:21:28;;;;;;;2.43;1.77;;;;;;;14.86;100.00;100414.50;4993791;28;20027;-86
2023/07/27 06:23:54;;;;;;;1.90;1.80;;;;;;;14.88;100.00;100409.22;4993180;28;20030;-84
2023/07/27 06:26:19;;;;;;;2.00;1.80;;;;;;;14.93;100.00;100409.88;4994003;28;20030;-86
2023/07/27 06:28:44;;;;;;;2.20;2.00;;;;;;;14.95;100.00;100398.47;4994072;28;20470;-83
2023/07/27 06:31:10;;;;;;;2.20;1.90;;;;;;;14.98;100.00;100400.94;4992580;28;20023;-83
2023/07/27 06:33:35;;;;;;;1.80;1.70;;;;;;;15.04;100.00;100396.38;4993881;28;20102;-84
2023/07/27 06:36:00;;;;;;;1.70;1.60;;;;;;;15.09;100.00;100397.91;4993352;28;20026;-83
2023/07/27 06:38:26;;;;;;;1.60;1.50;;;;;;;15.11;100.00;100393.47;4992904;28;20026;-84
2023/07/27 06:40:51;;;;;;;1.30;1.20;;;;;;;15.17;100.00;100392.34;4993718;28;20026;-84
2023/07/27 06:43:17;;;;;;;1.57;1.47;;;;;;;15.19;100.00;100385.31;4993043;28;20097;-83
2023/07/27 06:45:42;;;;;;;2.00;1.80;;;;;;;15.25;100.00;100392.88;4993883;28;20483;-83
2023/07/27 06:48:11;;;;;;;1.70;1.60;;;;;;;15.23;100.00;100384.25;4993071;28;20542;-83
2023/07/27 06:50:36;;;;;;;1.60;1.50;;;;;;;15.26;100.00;100381.50;4992690;28;20080;-83
2023/07/27 06:53:01;;;;;;;1.30;1.20;;;;;;;15.31;100.00;100390.94;4993386;28;20026;-84
2023/07/27 06:55:27;;;;;;;1.47;1.37;;;;;;;15.32;100.00;100388.25;4991917;28;20031;-83
2023/07/27 06:57:55;;;;;;;1.27;1.27;;;;;;;15.39;100.00;100394.91;4992809;28;20073;-83
2023/07/27 07:00:21;;;;;;;1.30;1.20;;;;;;;15.42;100.00;100393.94;4993028;28;20058;-83
2023/07/27 07:02:46;;;;;;;1.00;1.00;;;;;;;15.44;100.00;100390.34;5001966;28;20482;-83
2023/07/27 07:05:11;;;;;;;1.00;1.00;;;;;;;15.49;100.00;100390.13;4997861;28;20030;-84
2023/07/27 07:07:38;;;;;;;1.20;1.20;;;;;;;15.52;100.00;100386.53;5003272;28;20061;-85
2023/07/27 07:10:04;;;;;;;1.73;1.63;;;;;;;15.53;100.00;100375.16;5004648;28;20483;-84
2023/07/27 07:12:30;;;;;;;1.73;1.60;;;;;;;15.59;100.00;100383.59;5000174;28;20502;-83
2023/07/27 07:14:55;;;;;;;1.70;1.60;;;;;;;15.64;100.00;100379.94;4993123;28;20125;-84
2023/07/27 07:17:20;;;;;;;1.93;1.73;;;;;;;15.64;100.00;100375.53;5002779;28;20030;-84
2023/07/27 07:19:46;;;;;;;1.27;1.27;;;;;;;15.67;100.00;100379.78;5012059;28;20033;-84
2023/07/27 07:22:11;;;;;;;1.47;1.37;;;;;;;15.73;100.00;100385.59;5012584;28;20069;-84
2023/07/27 07:24:36;;;;;;;1.60;1.50;;;;;;;15.79;100.00;100378.41;5016042;28;20036;-85
2023/07/27 07:27:02;;;;;;;1.67;1.57;;;;;;;15.77;100.00;100375.81;5016586;28;20030;-84
2023/07/27 07:29:27;;;;;;;1.70;1.60;;;;;;;15.79;100.00;100384.47;5016441;28;20402;-84
2023/07/27 07:31:53;;;;;;;2.10;1.90;;;;;;;15.81;100.00;100380.03;5008826;28;20080;-84
2023/07/27 07:34:18;;;;;;;2.20;2.00;;;;;;;15.83;100.00;100382.56;4996222;28;20049;-85
2023/07/27 07:36:44;;;;;;;2.10;1.90;;;;;;;15.83;100.00;100366.84;4997834;28;20022;-89
2023/07/27 07:39:09;;;;;;;2.00;1.90;;;;;;;15.95;100.00;100373.34;4996349;28;20034;-84
2023/07/27 07:41:34;;;;;;;2.40;1.97;;;;;;;16.02;100.00;100366.91;4996330;28;20038;-85
2023/07/27 07:44:00;;;;;;;1.87;1.77;;;;;;;16.05;100.00;100362.38;4996639;28;20515;-84
2023/07/27 07:46:25;;;;;;;2.60;2.07;;;;;;;16.18;100.00;100360.06;5003104;28;20022;-83
2023/07/27 07:48:51;;;;;;;2.70;2.50;;;;;;;16.25;100.00;100360.63;5015251;28;20038;-83
2023/07/27 07:51:16;;;;;;;2.40;2.20;;;;;;;16.29;100.00;100370.03;5015810;28;20574;-83
2023/07/27 07:53:41;;;;;;;2.07;1.90;;;;;;;16.32;100.00;100369.06;5016055;28;20105;-84
2023/07/27 07:56:15;;;;;;;2.13;1.93;;;;;;;16.34;100.00;100362.81;5014871;28;20026;-84
2023/07/27 07:58:40;;;;;;;2.17;2.08;;;;;;;16.31;100.00;100360.31;5006012;28;20030;-84
2023/07/27 08:01:06;;;;;;;2.33;2.13;;;;;;;16.33;100.00;100362.88;4995475;28;20033;-84
2023/07/27 08:03:31;;;;;;;2.30;2.10;;;;;;;16.36;100.00;100360.09;4996443;28;20030;-83
2023/07/27 08:05:57;;;;;;;1.90;1.80;;;;;;;16.42;100.00;100365.06;4996005;28;20036;-84
2023/07/27 08:08:22;;;;;;;1.90;1.80;;;;;;;16.46;100.00;100363.97;4995683;28;20030;-83
2023/07/27 08:10:50;;;;;;;1.90;1.80;;;;;;;16.52;100.00;100357.59;4995646;28;20025;-85
2023/07/27 08:13:15;;;;;;;1.70;1.60;;;;;;;16.51;100.00;100351.53;5001957;28;20033;-84
2023/07/27 08:15:50;;;;;;;2.03;1.57;;;;;;;16.57;100.00;100362.63;5010618;28;20057;-84
2023/07/27 08:18:15;;;;;;;1.40;1.30;;;;;;;16.56;100.00;100361.78;4995883;28;20471;-84
2023/07/27 08:20:41;;;;;;;1.40;1.30;;;;;;;16.59;100.00;100363.41;4995891;28;20022;-85
2023/07/27 08:23:06;;;;;;;1.20;1.20;;;;;;;16.63;100.00;100357.94;4995580;28;20029;-84
2023/07/27 08:25:37;;;;;;;0.90;0.90;;;;;;;16.65;100.00;100353.47;4995974;28;20030;-85
2023/07/27 08:28:02;;;;;;;1.45;1.45;;;;;;;16.71;100.00;100357.56;5005355;28;20121;-84
2023/07/27 08:30:28;;;;;;;1.03;1.03;;;;;;;16.74;100.00;100352.19;5013370;28;20104;-84
2023/07/27 08:32:54;;;;;;;0.87;0.87;;;;;;;16.79;100.00;100346.72;5015537;28;20371;-84
2023/07/27 08:35:20;;;;;;;0.90;0.90;;;;;;;16.92;100.00;100345.19;5013295;28;20116;-85
2023/07/27 08:37:45;;;;;;;1.70;1.60;;;;;;;16.96;100.00;100352.00;5014862;28;20113;-84
2023/07/27 08:40:11;;;;;;;1.60;1.50;;;;;;;16.89;100.00;100339.25;5006684;28;20383;-84
2023/07/27 08:42:37;;;;;;;1.70;1.60;;;;;;;17.00;100.00;100351.84;4995517;28;20344;-83
2023/07/27 08:45:03;;;;;;;2.00;1.90;;;;;;;17.04;100.00;100342.91;4988514;28;20080;-84
2023/07/27 08:47:28;;;;;;;1.80;1.70;;;;;;;17.09;100.00;100341.75;4975229;28;20069;-84
2023/07/27 08:49:54;;;;;;;2.10;2.00;;;;;;;17.14;100.00;100344.97;4981137;28;20026;-84
2023/07/27 08:52:23;;;;;;;1.80;1.70;;;;;;;17.22;100.00;100346.38;4978954;28;20101;-84
2023/07/27 08:54:48;;;;;;;1.65;1.42;;;;;;;17.32;100.00;100334.47;4985895;28;20058;-84
2023/07/27 08:57:14;;;;;;;1.70;1.60;;;;;;;17.34;100.00;100343.09;4994175;28;20050;-84
2023/07/27 08:59:40;;;;;;;1.60;1.50;;;;;;;17.38;100.00;100333.31;4995583;28;20026;-84
2023/07/27 09:02:05;;;;;;;1.60;1.50;;;;;;;17.47;100.00;100340.72;4993784;28;20030;-84
2023/07/27 09:04:30;;;;;;;1.30;1.30;;;;;;;17.47;100.00;100339.84;4993695;28;20030;-85
2023/07/27 09:06:56;;;;;;;1.30;1.30;;;;;;;17.52;100.00;100343.91;4995286;28;20073;-85
2023/07/27 09:09:28;;;;;;;1.60;1.50;;;;;;;17.56;100.00;100339.38;4994703;28;20054;-86
2023/07/27 09:11:54;;;;;;;1.80;1.70;;;;;;;17.61;100.00;100342.59;4994800;28;20169;-85
2023/07/27 09:14:20;;;;;;;1.60;1.50;;;;;;;17.59;100.00;100337.44;4994850;28;20101;-85
2023/07/27 09:16:49;;;;;;;1.60;1.50;;;;;;;17.62;100.00;100335.59;4994860;28;20040;-85
2023/07/27 09:19:18;;;;;;;1.80;1.70;;;;;;;17.53;100.00;100339.53;4994356;28;20022;-84
2023/07/27 09:21:52;;;;;;;3.05;1.90;;;;;;;17.52;100.00;100337.84;4994845;28;20022;-85
2023/07/27 09:24:17;;;;;;;1.70;1.60;;;;;;;17.52;100.00;100343.09;4994670;28;20034;-85
2023/07/27 09:26:47;;;;;;;2.10;2.00;;;;;;;17.54;100.00;100338.59;4994555;28;20055;-85
2023/07/27 09:29:16;;;;;;;1.75;1.65;;;;;;;17.57;100.00;100341.03;4994624;28;20023;-85
2023/07/27 09:31:50;;;;;;;3.10;2.08;;;;;;;17.71;100.00;100345.59;4994181;28;20078;-85
2023/07/27 09:34:20;;;;;;;2.03;1.92;;;;;;;17.79;100.00;100338.16;4993673;28;20109;-84
2023/07/27 09:36:46;;;;;;;2.30;2.10;;;;;;;17.90;100.00;100350.72;4995194;28;20023;-79
2023/07/27 09:39:14;;;;;;;1.90;1.80;;;;;;;17.95;100.00;100346.03;4996657;28;20027;-87
2023/07/27 09:41:43;;;;;;;1.77;1.67;;;;;;;17.94;100.00;100340.88;4982997;28;20471;-87
2023/07/27 09:44:15;;;;;;;1.52;1.45;;;;;;;17.96;100.00;100331.97;4974976;28;20107;-86
2023/07/27 09:46:42;;;;;;;1.42;1.33;;;;;;;18.03;100.00;100338.63;4992492;28;20023;-86
2023/07/27 09:49:08;;;;;;;1.50;1.40;;;;;;;18.08;100.00;100329.66;4987240;28;20034;-94
2023/07/27 09:51:33;;;;;;;1.13;1.13;;;;;;;18.10;100.00;100338.28;4975359;28;20038;-88
2023/07/27 09:54:03;;;;;;;1.50;1.40;;;;;;;18.11;100.00;100340.00;4975644;28;20027;-91
2023/07/27 09:56:28;;;;;;;1.15;1.15;;;;;;;18.16;100.00;100341.44;4975784;28;20050;-88
2023/07/27 09:58:53;;;;;;;1.30;1.23;;;;;;;18.17;100.00;100343.13;4975258;28;20165;-89
2023/07/27 10:01:19;;;;;;;1.10;1.10;;;;;;;18.16;100.00;100343.19;4974719;28;20031;-88
2023/07/27 10:03:45;;;;;;;1.30;1.30;;;;;;;18.09;100.00;100334.81;4975012;28;20035;-88
2023/07/27 10:06:16;;;;;;;1.00;1.00;;;;;;;18.09;100.00;100341.84;4974802;28;20074;-88
2023/07/27 10:08:42;;;;;;;1.10;1.10;;;;;;;18.06;100.00;100342.88;4979821;28;20563;-88
2023/07/27 10:11:08;;;;;;;1.42;1.33;;;;;;;18.04;100.00;100353.44;4994242;28;20026;-88
2023/07/27 10:13:44;;;;;;;1.37;1.27;;;;;;;18.12;100.00;100341.69;4994338;28;20026;-89
2023/07/27 10:16:11;;;;;;;;;;;;;;;18.23;100.00;100344.56;4994396;28;20116;-93
2023/07/27 10:18:45;;;;;;;1.15;1.10;;;;;;;18.36;100.00;100344.72;4994080;28;19960;-86
2023/07/27 10:21:28;;;;;;;1.50;1.40;;;;;;;18.43;100.00;100334.72;4992940;28;20105;-86
2023/07/27 10:24:01;;;;;;;1.35;1.25;;;;;;;18.45;100.00;100333.69;4993556;28;20049;-85
2023/07/27 10:26:43;;;;;;;1.40;1.30;;;;;;;18.51;100.00;100343.00;4993265;28;20090;-87
2023/07/27 10:29:22;;;;;;;1.55;1.45;;;;;;;18.47;100.00;100333.59;4993037;28;20406;-86
2023/07/27 10:32:02;;;;;;;1.05;1.05;;;;;;;18.42;100.00;100344.38;4993446;28;20394;-86
2023/07/27 10:34:29;;;;;;;1.00;1.00;;;;;;;18.46;100.00;100345.91;4993023;28;20062;-87
2023/07/27 10:36:57;;;;;;;;;;;;;;;18.46;100.00;100347.69;4992216;28;20031;-87
2023/07/27 10:39:41;;;;;;;1.23;1.15;;;;;;;18.46;100.00;100347.69;4993571;28;20258;-88
2023/07/27 10:42:14;;;;;;;1.60;1.50;;;;;;;18.40;100.00;100350.66;4993345;28;20046;-87
2023/07/27 10:44:41;;;;;;;0.95;0.95;;;;;;;18.45;100.00;100343.38;4993234;28;20026;-87
2023/07/27 10:47:08;;;;;;;1.00;1.00;;;;;;;18.46;100.00;100345.91;4993306;28;20031;-86
2023/07/27 10:49:44;;;;;;;0.90;0.90;;;;;;;18.44;100.00;100344.31;4993420;28;20363;-86
2023/07/27 10:52:14;;;;;;;0.63;0.63;;;;;;;18.48;100.00;100341.41;4993112;28;20092;-87
2023/07/27 10:54:40;;;;;;;1.40;1.25;;;;;;;18.60;100.00;100352.16;4993603;28;20033;-87
2023/07/27 10:57:09;;;;;;;1.63;1.52;;;;;;;18.51;100.00;100343.88;4992784;28;20049;-86
2023/07/27 10:59:39;;;;;;;1.70;1.60;;;;;;;18.45;100.00;100346.81;4993355;28;20383;-87
2023/07/27 11:02:15;;;;;;;1.67;1.58;;;;;;;18.41;100.00;100347.91;4993466;28;20420;-88
2023/07/27 11:04:41;;;;;;;1.10;1.10;;;;;;;18.36;100.00;100344.72;4992946;28;20073;-88
2023/07/27 11:07:09;;;;;;;1.60;1.50;;;;;;;18.32;100.00;100351.94;4985079;28;20117;-86
2023/07/27 11:09:35;;;;;;;1.38;1.30;;;;;;;18.33;100.00;100350.13;4972966;28;20034;-88
2023/07/27 11:12:02;;;;;;;1.63;1.53;;;;;;;18.31;100.00;100349.38;4974837;28;20067;-89
2023/07/27 11:14:27;;;;;;;;;;;;;;;18.32;100.00;100349.31;4974403;28;20063;-89
2023/07/27 11:16:53;;;;;;;1.60;1.50;;;;;;;18.36;100.00;100339.47;4974316;28;19954;-88
2023/07/27 11:19:18;;;;;;;1.33;1.27;;;;;;;18.40;100.00;100341.00;4973563;28;20027;-89
2023/07/27 11:21:44;;;;;;;1.20;1.10;;;;;;;18.47;100.00;100344.97;4974358;28;20105;-89